createdAt,value
2018-12-02T00:02:01.958Z,93.40
2018-12-02T00:04:36.917Z,93.50
2018-12-02T00:07:27.615Z,93.60
2018-12-02T00:10:06.134Z,93.50
2018-12-02T00:12:41.256Z,93.40
2018-12-02T00:15:21.456Z,93.40
2018-12-02T00:17:58.045Z,93.40
2018-12-02T00:20:33.811Z,93.40
2018-12-02T00:23:09.444Z,93.30
2018-12-02T00:25:44.711Z,93.20
2018-12-02T00:28:20.471Z,93.30
2018-12-02T00:30:55.818Z,93.30
2018-12-02T00:33:30.832Z,93.30
2018-12-02T00:36:06.804Z,93.10
2018-12-02T00:38:42.691Z,93.10
2018-12-02T00:41:18.628Z,93.00
2018-12-02T00:43:53.702Z,93.10
2018-12-02T00:46:29.628Z,93.10
2018-12-02T00:49:04.621Z,93.00
2018-12-02T00:51:40.505Z,92.90
2018-12-02T00:54:16.277Z,93.20
2018-12-02T00:56:51.284Z,92.80
2018-12-02T00:59:26.284Z,92.70
2018-12-02T01:02:02.195Z,92.70
2018-12-02T01:04:37.295Z,92.70
2018-12-02T01:07:12.444Z,92.80
2018-12-02T01:09:47.384Z,92.80
2018-12-02T01:12:23.320Z,92.70
2018-12-02T01:14:58.358Z,92.80
2018-12-02T01:17:34.240Z,92.80
2018-12-02T01:20:15.301Z,92.90
2018-12-02T01:22:50.396Z,92.90
2018-12-02T01:25:26.268Z,92.80
2018-12-02T01:28:02.006Z,92.60
2018-12-02T01:30:38.071Z,92.70
2018-12-02T01:33:13.742Z,92.70
2018-12-02T01:35:48.756Z,92.70
2018-12-02T01:38:24.422Z,92.80
2018-12-02T01:40:59.436Z,92.80
2018-12-02T01:43:35.256Z,92.70
2018-12-02T01:46:10.229Z,92.70
2018-12-02T01:48:46.038Z,92.60
2018-12-02T01:51:22.062Z,92.60
2018-12-02T01:53:57.884Z,92.70
2018-12-02T01:56:33.833Z,92.70
2018-12-02T01:59:09.037Z,92.70
2018-12-02T02:01:44.063Z,92.70
2018-12-02T02:04:19.899Z,92.80
2018-12-02T02:06:55.808Z,92.90
2018-12-02T02:09:31.565Z,93.00
2018-12-02T02:12:07.535Z,93.30
2018-12-02T02:14:42.643Z,93.50
2018-12-02T02:17:18.543Z,93.60
2018-12-02T02:19:53.704Z,93.60
2018-12-02T02:22:29.696Z,93.80
2018-12-02T02:25:07.189Z,94.00
2018-12-02T02:27:43.433Z,94.20
2018-12-02T02:30:24.340Z,94.20
2018-12-02T02:33:00.150Z,94.30
2018-12-02T02:35:36.080Z,94.40
2018-12-02T02:38:11.903Z,94.40
2018-12-02T02:40:46.963Z,94.50
2018-12-02T02:43:22.804Z,94.40
2018-12-02T02:45:58.617Z,94.50
2018-12-02T02:48:34.519Z,94.60
2018-12-02T02:51:09.626Z,94.70
2018-12-02T02:53:44.686Z,94.80
2018-12-02T02:56:19.671Z,94.70
2018-12-02T02:58:54.660Z,94.80
2018-12-02T03:01:30.579Z,94.80
2018-12-02T03:04:05.538Z,94.90
2018-12-02T03:06:41.453Z,94.90
2018-12-02T03:09:16.575Z,95.30
2018-12-02T03:11:51.627Z,95.00
2018-12-02T03:14:27.440Z,95.00
2018-12-02T03:17:03.230Z,95.00
2018-12-02T03:19:38.994Z,95.00
2018-12-02T03:22:14.857Z,95.00
2018-12-02T03:24:50.689Z,95.00
2018-12-02T03:27:25.813Z,95.00
2018-12-02T03:30:00.841Z,95.00
2018-12-02T03:32:36.630Z,95.10
2018-12-02T03:35:13.602Z,95.10
2018-12-02T03:37:49.430Z,95.30
2018-12-02T03:40:26.262Z,95.10
2018-12-02T03:43:02.022Z,95.10
2018-12-02T03:45:37.004Z,95.00
2018-12-02T03:48:11.903Z,95.00
2018-12-02T03:50:47.780Z,95.00
2018-12-02T03:53:23.573Z,95.00
2018-12-02T03:55:59.485Z,95.00
2018-12-02T03:58:35.215Z,95.10
2018-12-02T04:01:11.176Z,95.20
2018-12-02T04:03:46.186Z,95.20
2018-12-02T04:06:21.252Z,95.20
2018-12-02T04:08:56.951Z,95.30
2018-12-02T04:11:32.050Z,95.40
2018-12-02T04:14:07.783Z,95.40
2018-12-02T04:16:43.640Z,95.40
2018-12-02T04:19:19.523Z,95.50
2018-12-02T04:21:54.860Z,95.50
2018-12-02T04:24:29.935Z,95.50
2018-12-02T04:27:05.160Z,95.50
2018-12-02T04:29:40.790Z,95.50
2018-12-02T04:32:16.605Z,95.50
2018-12-02T04:34:51.635Z,95.60
2018-12-02T04:37:26.800Z,95.70
2018-12-02T04:40:01.831Z,95.60
2018-12-02T04:42:37.717Z,95.70
2018-12-02T04:45:13.682Z,95.70
2018-12-02T04:47:49.730Z,95.80
2018-12-02T04:50:25.567Z,95.80
2018-12-02T04:53:01.318Z,96.30
2018-12-02T04:55:37.282Z,95.70
2018-12-02T04:58:12.182Z,95.80
2018-12-02T05:00:48.133Z,95.90
2018-12-02T05:03:23.932Z,95.90
2018-12-02T05:05:59.920Z,95.80
2018-12-02T05:08:35.632Z,95.80
2018-12-02T05:11:11.467Z,95.80
2018-12-02T05:13:46.448Z,95.90
2018-12-02T05:16:22.463Z,95.90
2018-12-02T05:18:58.886Z,95.80
2018-12-02T05:21:34.218Z,95.80
2018-12-02T05:24:09.093Z,95.90
2018-12-02T05:26:45.019Z,96.00
2018-12-02T05:29:20.808Z,95.90
2018-12-02T05:31:56.303Z,95.90
2018-12-02T05:34:31.334Z,96.00
2018-12-02T05:37:07.205Z,96.10
2018-12-02T05:39:42.138Z,96.00
2018-12-02T05:42:23.040Z,96.00
2018-12-02T05:44:58.566Z,95.90
2018-12-02T05:47:33.575Z,95.90
2018-12-02T05:50:16.547Z,96.00
2018-12-02T05:52:54.564Z,96.10
2018-12-02T05:55:31.979Z,96.20
2018-12-02T05:58:08.223Z,96.20
2018-12-02T06:00:43.719Z,96.40
2018-12-02T06:03:19.746Z,96.60
2018-12-02T06:05:55.552Z,96.20
2018-12-02T06:08:31.441Z,96.30
2018-12-02T06:11:06.477Z,96.30
2018-12-02T06:13:41.820Z,96.30
2018-12-02T06:16:17.579Z,96.20
2018-12-02T06:18:52.657Z,96.20
2018-12-02T06:21:28.389Z,96.20
2018-12-02T06:24:04.257Z,96.20
2018-12-02T06:26:40.020Z,96.10
2018-12-02T06:29:15.851Z,96.10
2018-12-02T06:31:51.666Z,96.20
2018-12-02T06:34:26.610Z,96.10
2018-12-02T06:37:02.316Z,96.10
2018-12-02T06:39:38.167Z,96.00
2018-12-02T06:42:14.079Z,96.00
2018-12-02T06:44:50.050Z,96.10
2018-12-02T06:47:25.706Z,96.20
2018-12-02T06:50:01.463Z,96.20
2018-12-02T06:52:36.402Z,96.50
2018-12-02T06:55:21.469Z,96.20
2018-12-02T06:58:02.156Z,96.10
2018-12-02T07:00:46.126Z,96.10
2018-12-02T07:03:28.518Z,96.10
2018-12-02T07:06:04.331Z,96.10
2018-12-02T07:08:40.272Z,96.00
2018-12-02T07:11:15.288Z,96.10
2018-12-02T07:13:50.361Z,96.10
2018-12-02T07:16:26.317Z,96.10
2018-12-02T07:19:09.129Z,96.00
2018-12-02T07:28:41.031Z,95.90
2018-12-02T07:31:16.813Z,96.00
2018-12-02T07:33:52.696Z,96.10
2018-12-02T07:36:43.794Z,96.10
2018-12-02T07:40:13.382Z,96.10
2018-12-02T07:42:49.066Z,96.20
2018-12-02T07:45:24.075Z,96.10
2018-12-02T07:47:59.241Z,96.20
2018-12-02T07:50:35.031Z,96.20
2018-12-02T07:53:10.884Z,96.20
2018-12-02T07:55:46.144Z,96.20
2018-12-02T07:58:21.219Z,96.20
2018-12-02T08:00:56.142Z,96.20
2018-12-02T08:03:31.252Z,96.30
2018-12-02T08:06:07.150Z,96.20
2018-12-02T08:08:45.780Z,96.20
2018-12-02T08:11:20.869Z,96.20
2018-12-02T08:13:56.952Z,96.20
2018-12-02T08:16:32.806Z,96.20
2018-12-02T08:19:08.019Z,96.30
2018-12-02T08:21:43.770Z,96.30
2018-12-02T08:24:18.867Z,96.30
2018-12-02T08:26:54.598Z,96.30
2018-12-02T08:29:30.508Z,96.30
2018-12-02T08:32:06.232Z,96.30
2018-12-02T08:34:42.017Z,96.40
2018-12-02T08:37:17.950Z,96.40
2018-12-02T08:39:54.812Z,96.30
2018-12-02T08:42:30.679Z,96.20
2018-12-02T08:45:10.452Z,96.20
2018-12-02T08:47:46.257Z,96.20
2018-12-02T08:50:22.246Z,96.30
2018-12-02T08:52:58.081Z,96.30
2018-12-02T08:55:34.950Z,96.30
2018-12-02T08:58:10.767Z,96.30
2018-12-02T09:00:46.611Z,96.20
2018-12-02T09:03:22.340Z,96.30
2018-12-02T09:05:57.753Z,96.20
2018-12-02T09:08:32.949Z,96.20
2018-12-02T09:11:09.766Z,96.20
2018-12-02T09:13:45.627Z,96.30
2018-12-02T09:16:21.392Z,96.30
2018-12-02T09:18:57.210Z,96.40
2018-12-02T09:21:33.261Z,96.30
2018-12-02T09:24:09.149Z,96.30
2018-12-02T09:26:45.064Z,96.50
2018-12-02T09:29:20.891Z,96.30
2018-12-02T09:31:56.871Z,96.30
2018-12-02T09:34:32.787Z,96.30
2018-12-02T09:37:08.143Z,96.40
2018-12-02T09:39:43.772Z,96.40
2018-12-02T09:42:19.674Z,96.40
2018-12-02T09:44:55.654Z,96.40
2018-12-02T09:47:30.637Z,96.50
2018-12-02T09:50:08.592Z,96.50
2018-12-02T09:52:43.922Z,96.40
2018-12-02T09:55:27.115Z,96.40
2018-12-02T09:58:02.043Z,96.50
2018-12-02T10:00:37.993Z,96.50
2018-12-02T10:03:13.011Z,96.50
2018-12-02T10:05:48.879Z,96.50
2018-12-02T10:08:24.628Z,96.60
2018-12-02T10:11:00.570Z,96.70
2018-12-02T10:13:36.586Z,96.60
2018-12-02T10:16:15.625Z,96.60
2018-12-02T10:18:47.818Z,96.50
2018-12-02T10:21:24.194Z,96.60
2018-12-02T10:23:59.915Z,96.60
2018-12-02T10:26:35.084Z,96.60
2018-12-02T10:29:10.006Z,96.70
2018-12-02T10:31:45.866Z,96.70
2018-12-02T10:34:21.712Z,96.70
2018-12-02T10:36:57.571Z,96.70
2018-12-02T10:39:33.517Z,96.70
2018-12-02T10:42:08.771Z,96.70
2018-12-02T10:44:43.763Z,96.70
2018-12-02T10:47:19.666Z,96.70
2018-12-02T10:49:55.538Z,96.80
2018-12-02T10:52:31.693Z,96.80
2018-12-02T10:55:10.565Z,96.80
2018-12-02T10:57:45.655Z,96.80
2018-12-02T11:00:26.929Z,96.90
2018-12-02T11:03:02.459Z,96.90
2018-12-02T11:05:38.898Z,96.90
2018-12-02T11:08:14.259Z,96.90
2018-12-02T11:10:50.262Z,96.90
2018-12-02T11:13:26.056Z,96.90
2018-12-02T11:16:01.928Z,96.80
2018-12-02T11:18:37.715Z,96.80
2018-12-02T11:21:13.652Z,96.80
2018-12-02T11:23:49.187Z,96.80
2018-12-02T11:26:24.743Z,96.70
2018-12-02T11:28:59.720Z,96.80
2018-12-02T11:31:35.007Z,96.80
2018-12-02T11:34:10.866Z,96.70
2018-12-02T11:36:45.883Z,96.70
2018-12-02T11:39:20.832Z,96.70
2018-12-02T11:41:57.139Z,96.70
2018-12-02T11:44:32.914Z,96.70
2018-12-02T11:47:08.069Z,96.60
2018-12-02T11:49:43.940Z,96.60
2018-12-02T11:52:18.980Z,96.60
2018-12-02T11:54:54.819Z,96.70
2018-12-02T11:57:29.972Z,96.70
2018-12-02T12:00:13.986Z,96.70
2018-12-02T12:02:49.133Z,96.70
2018-12-02T12:05:24.961Z,96.60
2018-12-02T12:08:00.660Z,96.50
2018-12-02T12:10:36.689Z,96.40
2018-12-02T12:13:12.879Z,96.40
2018-12-02T12:15:48.378Z,96.30
2018-12-02T12:18:23.632Z,96.30
2018-12-02T12:21:13.773Z,96.20
2018-12-02T12:23:48.777Z,96.20
2018-12-02T12:26:24.738Z,96.10
2018-12-02T12:29:01.614Z,96.00
2018-12-02T12:31:37.441Z,96.00
2018-12-02T12:34:14.097Z,95.90
2018-12-02T12:36:49.435Z,95.90
2018-12-02T12:39:24.345Z,95.90
2018-12-02T12:41:59.329Z,95.80
2018-12-02T12:44:35.705Z,95.80
2018-12-02T12:47:11.441Z,95.80
2018-12-02T12:49:46.480Z,95.80
2018-12-02T12:52:22.924Z,95.70
2018-12-02T12:54:58.326Z,95.50
2018-12-02T12:57:33.429Z,95.50
2018-12-02T13:00:11.817Z,95.50
2018-12-02T13:02:47.541Z,95.50
2018-12-02T13:05:24.609Z,95.60
2018-12-02T13:08:01.599Z,95.60
2018-12-02T13:10:37.773Z,95.70
2018-12-02T13:13:13.262Z,95.70
2018-12-02T13:15:49.140Z,95.70
2018-12-02T13:18:25.159Z,95.90
2018-12-02T13:21:01.075Z,95.90
2018-12-02T13:23:36.178Z,96.00
2018-12-02T13:26:11.944Z,96.00
2018-12-02T13:28:47.111Z,96.00
2018-12-02T13:31:22.676Z,96.00
2018-12-02T13:33:57.690Z,95.80
2018-12-02T13:36:32.661Z,95.70
2018-12-02T13:39:10.211Z,95.60
2018-12-02T13:41:45.397Z,95.60
2018-12-02T13:44:21.548Z,95.60
2018-12-02T13:46:57.271Z,95.60
2018-12-02T13:49:33.224Z,95.80
2018-12-02T13:52:09.101Z,95.60
2018-12-02T13:54:44.696Z,95.40
2018-12-02T13:57:20.434Z,95.80
2018-12-02T13:59:56.355Z,95.80
2018-12-02T14:02:31.532Z,95.80
2018-12-02T14:05:08.621Z,95.80
2018-12-02T14:07:44.211Z,95.90
2018-12-02T14:10:19.419Z,96.00
2018-12-02T14:13:02.890Z,96.10
2018-12-02T14:15:48.383Z,96.20
2018-12-02T14:18:36.969Z,96.20
2018-12-02T14:21:12.857Z,96.10
2018-12-02T14:23:48.724Z,96.10
2018-12-02T14:26:24.508Z,96.10
2018-12-02T14:29:08.333Z,96.20
2018-12-02T14:31:47.824Z,96.20
2018-12-02T14:34:22.896Z,96.20
2018-12-02T14:36:58.763Z,96.30
2018-12-02T14:39:34.692Z,96.30
2018-12-02T14:42:10.489Z,96.30
2018-12-02T14:44:46.270Z,96.30
2018-12-02T14:47:21.870Z,96.40
2018-12-02T14:49:56.833Z,96.50
2018-12-02T14:52:32.628Z,96.40
2018-12-02T14:55:10.426Z,96.40
2018-12-02T14:57:47.349Z,96.40
2018-12-02T15:00:22.406Z,96.40
2018-12-02T15:02:58.302Z,96.30
2018-12-02T15:05:33.887Z,96.30
2018-12-02T15:08:08.897Z,96.20
2018-12-02T15:10:44.005Z,96.20
2018-12-02T15:13:18.908Z,96.30
2018-12-02T15:15:53.980Z,96.30
2018-12-02T15:18:29.724Z,96.40
2018-12-02T15:21:04.846Z,96.40
2018-12-02T15:23:40.516Z,96.50
2018-12-02T15:26:16.238Z,96.50
2018-12-02T15:28:51.956Z,96.50
2018-12-02T15:31:27.981Z,96.90
2018-12-02T15:34:03.892Z,96.60
2018-12-02T15:36:38.972Z,96.50
2018-12-02T15:39:14.951Z,96.50
2018-12-02T15:41:50.115Z,96.50
2018-12-02T15:44:25.720Z,96.60
2018-12-02T15:47:01.541Z,96.60
2018-12-02T15:49:37.433Z,96.60
2018-12-02T15:52:13.331Z,96.60
2018-12-02T15:54:48.394Z,96.60
2018-12-02T15:57:23.537Z,96.60
2018-12-02T15:59:58.867Z,96.60
2018-12-02T16:02:34.245Z,96.60
2018-12-02T16:05:10.113Z,96.60
2018-12-02T16:07:45.735Z,96.60
2018-12-02T16:10:20.753Z,96.60
2018-12-02T16:12:56.069Z,96.70
2018-12-02T16:15:33.441Z,96.70
2018-12-02T16:18:10.418Z,96.70
2018-12-02T16:20:49.663Z,96.70
2018-12-02T16:23:26.033Z,96.70
2018-12-02T16:26:01.056Z,96.70
2018-12-02T16:28:36.814Z,96.70
2018-12-02T16:31:12.664Z,96.70
2018-12-02T16:33:48.475Z,96.70
2018-12-02T16:36:23.737Z,96.70
2018-12-02T16:38:59.548Z,96.70
2018-12-02T16:41:34.690Z,96.60
2018-12-02T16:44:11.798Z,96.70
2018-12-02T16:46:47.285Z,96.70
2018-12-02T16:49:22.285Z,96.70
2018-12-02T16:51:58.208Z,96.70
2018-12-02T16:54:34.084Z,96.80
2018-12-02T16:57:11.246Z,96.80
2018-12-02T16:59:47.073Z,96.80
2018-12-02T17:02:23.017Z,96.80
2018-12-02T17:04:57.991Z,96.80
2018-12-02T17:07:33.898Z,96.80
2018-12-02T17:10:11.138Z,96.70
2018-12-02T17:12:46.671Z,96.70
2018-12-02T17:15:23.512Z,96.70
2018-12-02T17:18:00.811Z,96.60
2018-12-02T17:20:36.285Z,96.60
2018-12-02T17:23:12.291Z,96.60
2018-12-02T17:25:48.126Z,96.60
2018-12-02T17:28:28.670Z,96.50
2018-12-02T17:31:11.323Z,96.50
2018-12-02T17:33:46.578Z,96.50
2018-12-02T17:36:21.654Z,96.50
2018-12-02T17:39:01.204Z,96.50
2018-12-02T17:41:36.682Z,96.60
2018-12-02T17:44:12.661Z,96.80
2018-12-02T17:46:48.364Z,96.40
2018-12-02T17:49:24.331Z,96.40
2018-12-02T17:52:00.628Z,96.40
2018-12-02T17:54:36.412Z,96.30
2018-12-02T17:57:12.317Z,96.30
2018-12-02T17:59:47.298Z,96.30
2018-12-02T18:02:23.631Z,96.30
2018-12-02T18:04:58.991Z,96.20
2018-12-02T18:07:34.991Z,96.20
2018-12-02T18:10:12.403Z,96.20
2018-12-02T18:12:48.160Z,96.20
2018-12-02T18:15:24.109Z,96.00
2018-12-02T18:17:59.873Z,96.00
2018-12-02T18:20:34.869Z,96.00
2018-12-02T18:23:10.202Z,96.00
2018-12-02T18:25:45.748Z,95.80
2018-12-02T18:28:21.524Z,95.70
2018-12-02T18:30:57.459Z,95.40
2018-12-02T18:33:34.344Z,95.20
2018-12-02T18:36:13.689Z,95.10
2018-12-02T18:38:49.887Z,95.30
2018-12-02T18:41:36.249Z,95.30
2018-12-02T18:44:13.793Z,95.30
2018-12-02T18:46:49.515Z,95.30
2018-12-02T18:49:24.810Z,95.30
2018-12-02T18:52:00.703Z,95.30
2018-12-02T18:54:36.203Z,95.40
2018-12-02T18:57:11.272Z,95.60
2018-12-02T18:59:46.285Z,95.20
2018-12-02T19:02:22.190Z,95.20
2018-12-02T19:04:58.246Z,95.10
2018-12-02T19:07:34.058Z,95.00
2018-12-02T19:10:11.944Z,95.00
2018-12-02T19:12:46.937Z,95.00
2018-12-02T19:15:21.926Z,95.00
2018-12-02T19:17:57.389Z,95.00
2018-12-02T19:20:32.393Z,95.10
2018-12-02T19:23:10.431Z,95.10
2018-12-02T19:25:46.205Z,95.00
2018-12-02T19:28:21.292Z,95.00
2018-12-02T19:30:57.108Z,95.10
2018-12-02T19:33:32.676Z,95.20
2018-12-02T19:36:12.936Z,95.30
2018-12-02T19:38:48.225Z,95.40
2018-12-02T19:41:23.552Z,95.40
2018-12-02T19:43:59.216Z,95.60
2018-12-02T19:46:35.107Z,95.60
2018-12-02T19:49:10.964Z,95.60
2018-12-02T19:51:46.947Z,95.70
2018-12-02T19:54:22.209Z,95.70
2018-12-02T19:56:57.379Z,95.70
2018-12-02T19:59:32.517Z,95.70
2018-12-02T20:02:07.556Z,95.60
2018-12-02T20:04:43.283Z,95.70
2018-12-02T20:07:18.463Z,95.70
2018-12-02T20:09:54.238Z,95.60
2018-12-02T20:12:29.637Z,95.70
2018-12-02T20:15:07.475Z,95.70
2018-12-02T20:17:42.789Z,95.70
2018-12-02T20:20:24.731Z,95.80
2018-12-02T20:23:00.291Z,95.70
2018-12-02T20:25:36.278Z,95.70
2018-12-02T20:28:13.326Z,95.70
2018-12-02T20:30:48.943Z,95.70
2018-12-02T20:33:24.414Z,95.80
2018-12-02T20:35:59.400Z,95.80
2018-12-02T20:38:34.544Z,95.70
2018-12-02T20:41:10.708Z,95.80
2018-12-02T20:43:46.429Z,95.80
2018-12-02T20:46:22.326Z,95.80
2018-12-02T20:48:58.224Z,95.90
2018-12-02T20:51:33.213Z,95.80
2018-12-02T20:54:08.225Z,95.80
2018-12-02T20:56:44.092Z,95.80
2018-12-02T20:59:19.015Z,95.90
2018-12-02T21:01:55.001Z,95.80
2018-12-02T21:04:31.080Z,95.90
2018-12-02T21:07:08.912Z,95.80
2018-12-02T21:09:45.973Z,95.80
2018-12-02T21:12:21.694Z,95.90
2018-12-02T21:14:57.580Z,95.90
2018-12-02T21:17:32.510Z,95.90
2018-12-02T21:20:09.910Z,96.00
2018-12-02T21:22:45.356Z,96.00
2018-12-02T21:25:22.583Z,96.10
2018-12-02T21:27:58.194Z,96.10
2018-12-02T21:30:34.134Z,96.10
2018-12-02T21:33:09.993Z,96.10
2018-12-02T21:35:45.127Z,96.20
2018-12-02T21:38:21.009Z,96.20
2018-12-02T21:40:57.034Z,96.20
2018-12-02T21:43:33.022Z,96.30
2018-12-02T21:46:09.462Z,96.30
2018-12-02T21:48:45.108Z,96.30
2018-12-02T21:51:21.580Z,96.30
2018-12-02T21:53:57.033Z,96.30
2018-12-02T21:56:32.963Z,96.20
2018-12-02T21:59:08.911Z,96.20
2018-12-02T22:01:45.610Z,96.20
2018-12-02T22:04:20.936Z,96.20
2018-12-02T22:06:56.911Z,96.20
2018-12-02T22:09:32.718Z,96.20
2018-12-02T22:12:07.792Z,96.20
2018-12-02T22:14:45.009Z,96.20
2018-12-02T22:17:20.564Z,96.20
2018-12-02T22:19:55.700Z,96.20
2018-12-02T22:22:30.710Z,96.50
2018-12-02T22:25:16.355Z,96.10
2018-12-02T22:27:52.830Z,96.00
2018-12-02T22:30:28.616Z,96.10
2018-12-02T22:33:04.527Z,96.10
2018-12-02T22:35:39.608Z,96.10
2018-12-02T22:38:14.589Z,96.20
2018-12-02T22:40:49.812Z,96.20
2018-12-02T22:43:25.077Z,96.20
2018-12-02T22:45:59.997Z,96.10
2018-12-02T22:48:35.126Z,96.00
2018-12-02T22:51:11.865Z,96.00
2018-12-02T22:53:48.086Z,96.00
2018-12-02T22:56:23.439Z,95.90
2018-12-02T22:59:00.033Z,96.00
2018-12-02T23:01:41.141Z,95.90
2018-12-02T23:04:16.436Z,96.00
2018-12-02T23:06:52.351Z,96.00
2018-12-02T23:09:27.333Z,96.00
2018-12-02T23:12:04.290Z,96.10
2018-12-02T23:14:40.199Z,96.10
2018-12-02T23:17:20.160Z,96.10
2018-12-02T23:19:55.187Z,96.10
2018-12-02T23:22:30.240Z,96.20
2018-12-02T23:25:08.152Z,96.20
2018-12-02T23:27:43.252Z,96.20
2018-12-02T23:30:21.437Z,96.20
2018-12-02T23:32:56.431Z,96.30
2018-12-02T23:35:31.331Z,96.40
2018-12-02T23:38:07.212Z,96.30
2018-12-02T23:40:43.038Z,96.40
2018-12-02T23:43:18.001Z,96.40
2018-12-02T23:45:54.111Z,96.50
2018-12-02T23:48:30.335Z,96.50
2018-12-02T23:51:05.951Z,96.50
2018-12-02T23:53:43.224Z,96.50
2018-12-02T23:56:18.858Z,96.50
2018-12-02T23:58:54.021Z,96.50
